sensor_id;sensor_type;location;lat;lon;timestamp;pressure;altitude;pressure_sealevel;temperature;humidity
3250;BME280;1637;42.020;23.992;2022-07-29T00:00:14;93075.59;;;19.83;100.00
3250;BME280;1637;42.020;23.992;2022-07-29T00:02:41;93075.16;;;19.84;100.00
3250;BME280;1637;42.020;23.992;2022-07-29T00:05:08;93069.41;;;19.73;100.00
3250;BME280;1637;42.020;23.992;2022-07-29T00:07:35;93063.94;;;19.55;100.00
3250;BME280;1637;42.020;23.992;2022-07-29T00:10:02;93066.63;;;19.46;100.00
3250;BME280;1637;42.020;23.992;2022-07-29T00:12:29;93062.69;;;19.47;100.00
3250;BME280;1637;42.020;23.992;2022-07-29T00:14:56;93067.13;;;19.53;100.00
3250;BME280;1637;42.020;23.992;2022-07-29T00:17:25;93059.13;;;19.68;100.00
3250;BME280;1637;42.020;23.992;2022-07-29T00:19:52;93064.44;;;19.72;100.00
3250;BME280;1637;42.020;23.992;2022-07-29T00:22:19;93063.50;;;19.75;100.00
3250;BME280;1637;42.020;23.992;2022-07-29T00:24:47;93072.88;;;19.65;100.00
3250;BME280;1637;42.020;23.992;2022-07-29T00:27:15;93067.75;;;19.67;100.00
3250;BME280;1637;42.020;23.992;2022-07-29T00:29:42;93067.28;;;19.68;100.00
3250;BME280;1637;42.020;23.992;2022-07-29T00:32:08;93072.56;;;19.81;100.00
3250;BME280;1637;42.020;23.992;2022-07-29T00:34:37;93074.53;;;20.08;99.87
3250;BME280;1637;42.020;23.992;2022-07-29T00:37:21;93073.78;;;20.25;98.84
3250;BME280;1637;42.020;23.992;2022-07-29T00:39:48;93074.06;;;20.28;97.32
3250;BME280;1637;42.020;23.992;2022-07-29T00:42:15;93079.09;;;20.11;98.03
3250;BME280;1637;42.020;23.992;2022-07-29T00:44:42;93083.28;;;20.21;97.80
3250;BME280;1637;42.020;23.992;2022-07-29T00:47:10;93084.34;;;20.33;97.03
3250;BME280;1637;42.020;23.992;2022-07-29T00:49:40;93106.25;;;20.29;96.57
3250;BME280;1637;42.020;23.992;2022-07-29T00:52:09;93069.09;;;20.08;98.15
3250;BME280;1637;42.020;23.992;2022-07-29T00:54:38;93073.03;;;19.88;99.57
3250;BME280;1637;42.020;23.992;2022-07-29T00:57:06;93076.19;;;19.69;100.00
3250;BME280;1637;42.020;23.992;2022-07-29T00:59:34;93076.81;;;19.82;100.00
3250;BME280;1637;42.020;23.992;2022-07-29T01:02:01;93076.63;;;19.76;100.00
3250;BME280;1637;42.020;23.992;2022-07-29T01:04:28;93070.59;;;19.63;100.00
3250;BME280;1637;42.020;23.992;2022-07-29T01:06:57;93071.94;;;19.59;100.00
3250;BME280;1637;42.020;23.992;2022-07-29T01:09:26;93063.59;;;19.44;100.00
3250;BME280;1637;42.020;23.992;2022-07-29T01:11:53;93064.22;;;19.48;100.00
3250;BME280;1637;42.020;23.992;2022-07-29T01:14:21;93060.38;;;19.18;100.00
3250;BME280;1637;42.020;23.992;2022-07-29T01:16:59;93063.78;;;19.59;100.00
3250;BME280;1637;42.020;23.992;2022-07-29T01:19:51;93067.28;;;19.50;100.00
3250;BME280;1637;42.020;23.992;2022-07-29T01:22:27;93068.97;;;19.16;100.00
3250;BME280;1637;42.020;23.992;2022-07-29T01:25:10;93068.81;;;19.20;100.00
3250;BME280;1637;42.020;23.992;2022-07-29T01:27:47;93061.00;;;18.82;100.00
3250;BME280;1637;42.020;23.992;2022-07-29T01:30:21;93055.44;;;18.85;100.00
3250;BME280;1637;42.020;23.992;2022-07-29T01:32:50;93056.78;;;18.81;100.00
3250;BME280;1637;42.020;23.992;2022-07-29T01:35:22;93058.53;;;18.66;100.00
3250;BME280;1637;42.020;23.992;2022-07-29T01:37:54;93063.06;;;18.69;100.00
3250;BME280;1637;42.020;23.992;2022-07-29T01:40:25;93050.72;;;18.77;100.00
3250;BME280;1637;42.020;23.992;2022-07-29T01:42:56;93042.88;;;18.70;100.00
3250;BME280;1637;42.020;23.992;2022-07-29T01:45:29;93072.13;;;18.75;100.00
3250;BME280;1637;42.020;23.992;2022-07-29T01:48:03;93051.16;;;18.75;100.00
3250;BME280;1637;42.020;23.992;2022-07-29T01:50:35;93060.03;;;18.67;100.00
3250;BME280;1637;42.020;23.992;2022-07-29T01:53:05;93054.97;;;18.56;100.00
3250;BME280;1637;42.020;23.992;2022-07-29T01:55:36;93063.19;;;18.43;100.00
3250;BME280;1637;42.020;23.992;2022-07-29T01:58:05;93058.56;;;18.22;100.00
3250;BME280;1637;42.020;23.992;2022-07-29T02:00:36;93060.81;;;18.24;100.00
3250;BME280;1637;42.020;23.992;2022-07-29T02:03:07;93063.34;;;18.18;100.00
3250;BME280;1637;42.020;23.992;2022-07-29T02:05:36;93044.28;;;18.09;100.00
3250;BME280;1637;42.020;23.992;2022-07-29T02:08:05;93055.19;;;18.40;100.00
3250;BME280;1637;42.020;23.992;2022-07-29T02:10:33;93053.56;;;18.42;100.00
3250;BME280;1637;42.020;23.992;2022-07-29T02:13:03;93059.94;;;18.48;100.00
3250;BME280;1637;42.020;23.992;2022-07-29T02:15:32;93074.31;;;18.36;100.00
3250;BME280;1637;42.020;23.992;2022-07-29T02:18:05;93052.72;;;18.33;100.00
3250;BME280;1637;42.020;23.992;2022-07-29T02:20:34;93061.06;;;18.38;100.00
3250;BME280;1637;42.020;23.992;2022-07-29T02:23:02;93061.47;;;18.28;100.00
3250;BME280;1637;42.020;23.992;2022-07-29T02:25:30;93060.25;;;18.29;100.00
3250;BME280;1637;42.020;23.992;2022-07-29T02:27:59;92980.22;;;17.71;100.00
3250;BME280;1637;42.020;23.992;2022-07-29T02:30:27;93061.84;;;18.17;100.00
3250;BME280;1637;42.020;23.992;2022-07-29T02:32:56;93054.00;;;17.97;100.00
3250;BME280;1637;42.020;23.992;2022-07-29T02:35:26;93051.97;;;17.89;100.00
3250;BME280;1637;42.020;23.992;2022-07-29T02:37:53;93052.88;;;17.85;100.00
3250;BME280;1637;42.020;23.992;2022-07-29T02:40:39;93047.28;;;18.02;100.00
3250;BME280;1637;42.020;23.992;2022-07-29T02:43:09;93050.13;;;17.98;100.00
3250;BME280;1637;42.020;23.992;2022-07-29T02:45:37;93053.56;;;17.99;100.00
3250;BME280;1637;42.020;23.992;2022-07-29T02:48:08;93050.88;;;17.99;100.00
3250;BME280;1637;42.020;23.992;2022-07-29T02:50:44;92966.75;;;17.46;100.00
3250;BME280;1637;42.020;23.992;2022-07-29T02:53:14;93046.22;;;17.99;100.00
3250;BME280;1637;42.020;23.992;2022-07-29T02:55:45;93043.94;;;17.98;100.00
3250;BME280;1637;42.020;23.992;2022-07-29T02:58:16;93051.88;;;17.92;100.00
3250;BME280;1637;42.020;23.992;2022-07-29T03:00:50;93052.44;;;17.87;100.00
3250;BME280;1637;42.020;23.992;2022-07-29T03:03:18;93036.47;;;17.67;100.00
3250;BME280;1637;42.020;23.992;2022-07-29T03:05:48;93042.28;;;17.78;100.00
3250;BME280;1637;42.020;23.992;2022-07-29T03:08:15;93043.47;;;17.77;100.00
3250;BME280;1637;42.020;23.992;2022-07-29T03:10:44;93047.97;;;17.59;100.00
3250;BME280;1637;42.020;23.992;2022-07-29T03:13:12;93055.66;;;17.60;100.00
3250;BME280;1637;42.020;23.992;2022-07-29T03:15:39;93051.44;;;17.59;100.00
3250;BME280;1637;42.020;23.992;2022-07-29T03:18:09;93056.53;;;17.57;100.00
3250;BME280;1637;42.020;23.992;2022-07-29T03:20:37;93059.94;;;17.36;100.00
3250;BME280;1637;42.020;23.992;2022-07-29T03:23:06;93060.28;;;17.38;100.00
3250;BME280;1637;42.020;23.992;2022-07-29T03:25:34;93059.78;;;17.65;100.00
3250;BME280;1637;42.020;23.992;2022-07-29T03:28:01;93058.31;;;17.85;100.00
3250;BME280;1637;42.020;23.992;2022-07-29T03:30:28;93056.28;;;17.77;100.00
3250;BME280;1637;42.020;23.992;2022-07-29T03:32:56;93061.03;;;17.85;100.00
3250;BME280;1637;42.020;23.992;2022-07-29T03:35:23;93073.59;;;17.79;100.00
3250;BME280;1637;42.020;23.992;2022-07-29T03:37:50;93072.03;;;18.13;100.00
3250;BME280;1637;42.020;23.992;2022-07-29T03:40:22;93070.28;;;18.19;100.00
3250;BME280;1637;42.020;23.992;2022-07-29T03:42:49;93050.66;;;18.15;100.00
3250;BME280;1637;42.020;23.992;2022-07-29T03:45:19;93077.56;;;18.53;100.00
3250;BME280;1637;42.020;23.992;2022-07-29T03:47:49;93072.75;;;18.79;100.00
3250;BME280;1637;42.020;23.992;2022-07-29T03:50:17;93068.25;;;18.85;100.00
3250;BME280;1637;42.020;23.992;2022-07-29T03:52:47;93069.06;;;19.04;100.00
3250;BME280;1637;42.020;23.992;2022-07-29T03:55:15;93066.44;;;19.31;97.58
3250;BME280;1637;42.020;23.992;2022-07-29T03:57:45;93077.91;;;19.26;98.21
3250;BME280;1637;42.020;23.992;2022-07-29T04:00:13;93083.16;;;19.20;97.27
3250;BME280;1637;42.020;23.992;2022-07-29T04:02:42;93077.06;;;19.56;94.67
3250;BME280;1637;42.020;23.992;2022-07-29T04:05:12;93073.25;;;19.45;95.54
3250;BME280;1637;42.020;23.992;2022-07-29T04:07:40;93073.34;;;20.09;92.66
3250;BME280;1637;42.020;23.992;2022-07-29T04:10:07;93084.19;;;20.27;89.05
3250;BME280;1637;42.020;23.992;2022-07-29T04:12:34;93083.75;;;20.56;86.83
3250;BME280;1637;42.020;23.992;2022-07-29T04:15:03;93088.78;;;20.90;85.21
3250;BME280;1637;42.020;23.992;2022-07-29T04:17:30;93092.09;;;21.37;81.84
3250;BME280;1637;42.020;23.992;2022-07-29T04:19:57;93099.28;;;21.49;80.78
3250;BME280;1637;42.020;23.992;2022-07-29T04:22:24;93101.78;;;20.96;81.77
3250;BME280;1637;42.020;23.992;2022-07-29T04:24:51;93095.19;;;21.11;83.33
3250;BME280;1637;42.020;23.992;2022-07-29T04:27:18;93100.34;;;21.09;81.86
3250;BME280;1637;42.020;23.992;2022-07-29T04:29:44;93105.38;;;21.91;78.20
3250;BME280;1637;42.020;23.992;2022-07-29T04:32:13;93107.50;;;22.35;78.06
3250;BME280;1637;42.020;23.992;2022-07-29T04:34:40;93102.28;;;23.05;73.18
3250;BME280;1637;42.020;23.992;2022-07-29T04:37:06;93110.72;;;23.37;72.19
3250;BME280;1637;42.020;23.992;2022-07-29T04:39:33;93106.88;;;23.14;73.04
3250;BME280;1637;42.020;23.992;2022-07-29T04:42:00;93113.72;;;23.53;72.07
3250;BME280;1637;42.020;23.992;2022-07-29T04:44:27;93112.59;;;23.80;71.13
3250;BME280;1637;42.020;23.992;2022-07-29T04:46:54;93108.00;;;23.92;69.55
3250;BME280;1637;42.020;23.992;2022-07-29T04:49:23;93106.03;;;23.92;69.39
3250;BME280;1637;42.020;23.992;2022-07-29T04:51:50;93109.00;;;23.54;71.30
3250;BME280;1637;42.020;23.992;2022-07-29T04:54:17;93106.72;;;23.52;71.87
3250;BME280;1637;42.020;23.992;2022-07-29T04:56:44;93101.47;;;23.34;73.62
3250;BME280;1637;42.020;23.992;2022-07-29T04:59:11;93102.22;;;24.05;70.89
3250;BME280;1637;42.020;23.992;2022-07-29T05:01:38;93101.47;;;24.04;70.83
3250;BME280;1637;42.020;23.992;2022-07-29T05:04:05;93105.53;;;23.74;72.49
3250;BME280;1637;42.020;23.992;2022-07-29T05:06:33;93108.34;;;23.79;72.03
3250;BME280;1637;42.020;23.992;2022-07-29T05:09:00;93102.78;;;23.39;74.26
3250;BME280;1637;42.020;23.992;2022-07-29T05:11:27;93105.34;;;24.18;70.97
3250;BME280;1637;42.020;23.992;2022-07-29T05:13:54;93099.13;;;23.97;71.83
3250;BME280;1637;42.020;23.992;2022-07-29T05:16:21;93100.72;;;24.04;71.62
3250;BME280;1637;42.020;23.992;2022-07-29T05:18:48;93102.41;;;24.21;71.35
3250;BME280;1637;42.020;23.992;2022-07-29T05:21:15;93103.44;;;24.70;69.06
3250;BME280;1637;42.020;23.992;2022-07-29T05:23:43;93107.44;;;24.69;69.77
3250;BME280;1637;42.020;23.992;2022-07-29T05:26:10;93114.72;;;24.78;69.07
3250;BME280;1637;42.020;23.992;2022-07-29T05:28:37;93107.44;;;24.69;68.35
3250;BME280;1637;42.020;23.992;2022-07-29T05:31:04;93111.94;;;24.98;67.24
3250;BME280;1637;42.020;23.992;2022-07-29T05:33:31;93107.22;;;25.30;66.41
3250;BME280;1637;42.020;23.992;2022-07-29T05:35:58;93111.06;;;25.44;65.91
3250;BME280;1637;42.020;23.992;2022-07-29T05:38:25;93114.25;;;26.22;63.32
3250;BME280;1637;42.020;23.992;2022-07-29T05:40:56;93117.50;;;26.26;63.47
3250;BME280;1637;42.020;23.992;2022-07-29T05:43:23;93124.94;;;26.79;61.64
3250;BME280;1637;42.020;23.992;2022-07-29T05:45:50;93119.00;;;27.31;60.33
3250;BME280;1637;42.020;23.992;2022-07-29T05:48:17;93123.25;;;27.54;60.05
3250;BME280;1637;42.020;23.992;2022-07-29T05:50:43;93110.75;;;27.03;60.56
3250;BME280;1637;42.020;23.992;2022-07-29T05:53:10;93122.28;;;27.63;58.77
3250;BME280;1637;42.020;23.992;2022-07-29T05:55:37;93123.50;;;27.06;60.66
3250;BME280;1637;42.020;23.992;2022-07-29T05:58:05;93116.00;;;27.23;60.34
3250;BME280;1637;42.020;23.992;2022-07-29T06:00:32;93116.53;;;27.38;59.73
3250;BME280;1637;42.020;23.992;2022-07-29T06:02:59;93104.53;;;27.64;59.56
3250;BME280;1637;42.020;23.992;2022-07-29T06:05:26;93118.28;;;27.64;59.30
3250;BME280;1637;42.020;23.992;2022-07-29T06:07:53;93115.44;;;27.97;58.32
3250;BME280;1637;42.020;23.992;2022-07-29T06:10:20;93119.03;;;27.36;59.82
3250;BME280;1637;42.020;23.992;2022-07-29T06:12:47;93107.75;;;27.74;59.05
3250;BME280;1637;42.020;23.992;2022-07-29T06:15:16;93093.53;;;28.44;57.07
3250;BME280;1637;42.020;23.992;2022-07-29T06:17:43;93111.28;;;27.57;59.54
3250;BME280;1637;42.020;23.992;2022-07-29T06:20:10;93113.50;;;28.56;56.42
3250;BME280;1637;42.020;23.992;2022-07-29T06:22:37;93118.66;;;28.82;55.32
3250;BME280;1637;42.020;23.992;2022-07-29T06:25:05;93121.00;;;29.37;54.54
3250;BME280;1637;42.020;23.992;2022-07-29T06:27:32;93113.28;;;28.95;56.26
3250;BME280;1637;42.020;23.992;2022-07-29T06:29:58;93110.41;;;28.70;57.29
3250;BME280;1637;42.020;23.992;2022-07-29T06:32:28;93119.50;;;29.72;54.54
3250;BME280;1637;42.020;23.992;2022-07-29T06:34:56;93125.31;;;30.41;51.47
3250;BME280;1637;42.020;23.992;2022-07-29T06:37:23;93120.19;;;29.78;52.86
3250;BME280;1637;42.020;23.992;2022-07-29T06:39:50;93116.91;;;29.80;53.03
3250;BME280;1637;42.020;23.992;2022-07-29T06:42:37;93109.19;;;29.72;53.03
3250;BME280;1637;42.020;23.992;2022-07-29T06:45:08;93105.81;;;29.85;51.93
3250;BME280;1637;42.020;23.992;2022-07-29T06:47:37;93105.53;;;30.56;51.03
3250;BME280;1637;42.020;23.992;2022-07-29T06:50:04;93101.16;;;30.23;50.93
3250;BME280;1637;42.020;23.992;2022-07-29T06:52:31;93105.19;;;29.98;51.03
3250;BME280;1637;42.020;23.992;2022-07-29T06:54:58;93105.31;;;30.54;50.60
3250;BME280;1637;42.020;23.992;2022-07-29T06:57:25;93109.50;;;30.80;47.31
3250;BME280;1637;42.020;23.992;2022-07-29T06:59:52;93104.72;;;30.18;49.33
3250;BME280;1637;42.020;23.992;2022-07-29T07:02:19;93108.19;;;30.43;49.25
3250;BME280;1637;42.020;23.992;2022-07-29T07:04:47;93101.56;;;31.08;47.44
3250;BME280;1637;42.020;23.992;2022-07-29T07:07:14;93103.69;;;30.64;48.29
3250;BME280;1637;42.020;23.992;2022-07-29T07:09:41;93106.22;;;30.81;49.04
3250;BME280;1637;42.020;23.992;2022-07-29T07:12:08;93099.88;;;30.86;48.04
3250;BME280;1637;42.020;23.992;2022-07-29T07:14:35;93096.19;;;30.97;48.09
3250;BME280;1637;42.020;23.992;2022-07-29T07:17:02;93103.53;;;30.75;49.36
3250;BME280;1637;42.020;23.992;2022-07-29T07:19:29;93096.16;;;31.34;50.27
3250;BME280;1637;42.020;23.992;2022-07-29T07:21:57;93099.09;;;31.04;46.47
3250;BME280;1637;42.020;23.992;2022-07-29T07:24:24;93101.53;;;31.59;44.56
3250;BME280;1637;42.020;23.992;2022-07-29T07:26:51;93105.78;;;31.15;44.65
3250;BME280;1637;42.020;23.992;2022-07-29T07:29:18;93101.38;;;31.83;44.27
3250;BME280;1637;42.020;23.992;2022-07-29T07:31:45;93095.00;;;31.75;44.97
3250;BME280;1637;42.020;23.992;2022-07-29T07:34:12;93096.41;;;32.08;42.69
3250;BME280;1637;42.020;23.992;2022-07-29T07:36:39;93096.75;;;31.27;43.18
3250;BME280;1637;42.020;23.992;2022-07-29T07:39:07;93095.88;;;31.64;42.32
3250;BME280;1637;42.020;23.992;2022-07-29T07:41:34;93103.75;;;31.92;42.03
3250;BME280;1637;42.020;23.992;2022-07-29T07:44:01;93093.38;;;31.34;43.41
3250;BME280;1637;42.020;23.992;2022-07-29T07:46:28;93097.38;;;31.65;43.47
3250;BME280;1637;42.020;23.992;2022-07-29T07:48:55;93082.84;;;31.91;42.46
3250;BME280;1637;42.020;23.992;2022-07-29T07:51:22;93099.78;;;32.01;42.39
3250;BME280;1637;42.020;23.992;2022-07-29T07:53:49;93086.38;;;31.79;42.57
3250;BME280;1637;42.020;23.992;2022-07-29T07:56:17;93092.13;;;32.07;42.97
3250;BME280;1637;42.020;23.992;2022-07-29T07:58:44;93089.41;;;32.67;41.88
3250;BME280;1637;42.020;23.992;2022-07-29T08:01:11;93094.69;;;33.60;39.60
3250;BME280;1637;42.020;23.992;2022-07-29T08:03:38;93094.81;;;33.33;40.59
3250;BME280;1637;42.020;23.992;2022-07-29T08:06:05;93093.94;;;32.57;41.06
3250;BME280;1637;42.020;23.992;2022-07-29T08:08:32;93084.50;;;31.04;44.29
3250;BME280;1637;42.020;23.992;2022-07-29T08:10:59;93084.59;;;32.21;42.91
3250;BME280;1637;42.020;23.992;2022-07-29T08:13:29;93081.28;;;32.96;40.59
3250;BME280;1637;42.020;23.992;2022-07-29T08:15:57;93076.16;;;30.34;44.23
3250;BME280;1637;42.020;23.992;2022-07-29T08:18:26;93073.66;;;29.88;46.46
3250;BME280;1637;42.020;23.992;2022-07-29T08:20:54;93070.75;;;29.20;47.28
3250;BME280;1637;42.020;23.992;2022-07-29T08:23:21;93070.25;;;29.76;46.00
3250;BME280;1637;42.020;23.992;2022-07-29T08:25:49;93068.91;;;30.50;45.50
3250;BME280;1637;42.020;23.992;2022-07-29T08:28:16;93066.00;;;31.89;42.26
3250;BME280;1637;42.020;23.992;2022-07-29T08:30:45;93051.09;;;32.32;39.96
3250;BME280;1637;42.020;23.992;2022-07-29T08:33:12;93069.72;;;32.44;41.11
3250;BME280;1637;42.020;23.992;2022-07-29T08:35:39;93067.53;;;32.30;40.52
3250;BME280;1637;42.020;23.992;2022-07-29T08:38:06;93067.91;;;33.28;39.09
3250;BME280;1637;42.020;23.992;2022-07-29T08:40:33;93075.78;;;32.83;38.26
3250;BME280;1637;42.020;23.992;2022-07-29T08:43:04;93072.91;;;33.51;38.52
3250;BME280;1637;42.020;23.992;2022-07-29T08:45:42;93070.75;;;33.36;37.40
3250;BME280;1637;42.020;23.992;2022-07-29T08:48:13;93075.22;;;33.60;37.44
3250;BME280;1637;42.020;23.992;2022-07-29T08:50:41;93074.00;;;33.47;35.83
3250;BME280;1637;42.020;23.992;2022-07-29T08:53:11;93081.38;;;32.90;37.95
3250;BME280;1637;42.020;23.992;2022-07-29T08:55:40;93076.53;;;32.83;36.57
3250;BME280;1637;42.020;23.992;2022-07-29T08:58:09;93063.09;;;32.74;37.81
3250;BME280;1637;42.020;23.992;2022-07-29T09:00:37;93052.84;;;32.82;38.26
3250;BME280;1637;42.020;23.992;2022-07-29T09:03:08;93055.25;;;32.86;37.44
3250;BME280;1637;42.020;23.992;2022-07-29T09:05:37;93052.34;;;33.25;36.50
3250;BME280;1637;42.020;23.992;2022-07-29T09:08:08;93050.25;;;32.10;37.40
3250;BME280;1637;42.020;23.992;2022-07-29T09:10:35;93040.25;;;31.94;38.10
3250;BME280;1637;42.020;23.992;2022-07-29T09:13:02;93009.53;;;31.92;37.50
3250;BME280;1637;42.020;23.992;2022-07-29T09:15:29;93053.97;;;32.26;37.67
3250;BME280;1637;42.020;23.992;2022-07-29T09:17:56;93046.31;;;32.19;38.43
3250;BME280;1637;42.020;23.992;2022-07-29T09:20:23;93049.03;;;32.45;37.09
3250;BME280;1637;42.020;23.992;2022-07-29T09:22:52;93038.75;;;32.80;35.61
3250;BME280;1637;42.020;23.992;2022-07-29T09:25:32;93044.16;;;32.12;36.75
3250;BME280;1637;42.020;23.992;2022-07-29T09:28:06;93025.84;;;31.69;36.61
3250;BME280;1637;42.020;23.992;2022-07-29T09:30:33;93043.53;;;32.06;37.76
3250;BME280;1637;42.020;23.992;2022-07-29T09:33:02;93048.44;;;31.87;35.60
3250;BME280;1637;42.020;23.992;2022-07-29T09:35:30;92974.00;;;32.30;35.58
3250;BME280;1637;42.020;23.992;2022-07-29T09:38:09;93037.75;;;32.04;36.90
3250;BME280;1637;42.020;23.992;2022-07-29T09:40:37;93034.69;;;32.07;36.54
3250;BME280;1637;42.020;23.992;2022-07-29T09:43:10;93042.78;;;32.05;35.99
3250;BME280;1637;42.020;23.992;2022-07-29T09:45:37;93035.75;;;31.91;36.47
3250;BME280;1637;42.020;23.992;2022-07-29T09:48:13;93036.19;;;32.22;37.48
3250;BME280;1637;42.020;23.992;2022-07-29T09:50:42;93037.47;;;32.21;37.36
3250;BME280;1637;42.020;23.992;2022-07-29T09:53:11;93032.22;;;32.30;37.08
3250;BME280;1637;42.020;23.992;2022-07-29T09:55:48;93043.16;;;32.49;36.43
3250;BME280;1637;42.020;23.992;2022-07-29T09:58:16;93036.81;;;32.15;36.66
3250;BME280;1637;42.020;23.992;2022-07-29T10:00:45;93034.44;;;32.45;37.95
3250;BME280;1637;42.020;23.992;2022-07-29T10:03:13;93025.19;;;32.29;37.11
3250;BME280;1637;42.020;23.992;2022-07-29T10:05:41;93030.22;;;31.91;37.40
3250;BME280;1637;42.020;23.992;2022-07-29T10:08:09;93034.69;;;32.07;37.86
3250;BME280;1637;42.020;23.992;2022-07-29T10:10:40;93020.59;;;32.05;37.67
3250;BME280;1637;42.020;23.992;2022-07-29T10:13:09;92995.16;;;31.81;37.98
3250;BME280;1637;42.020;23.992;2022-07-29T10:15:38;93023.16;;;32.30;37.24
3250;BME280;1637;42.020;23.992;2022-07-29T10:18:06;93034.56;;;32.26;35.69
3250;BME280;1637;42.020;23.992;2022-07-29T10:20:34;92994.09;;;31.70;36.52
3250;BME280;1637;42.020;23.992;2022-07-29T10:23:01;93019.53;;;32.22;35.60
3250;BME280;1637;42.020;23.992;2022-07-29T10:25:28;93018.94;;;31.76;36.00
3250;BME280;1637;42.020;23.992;2022-07-29T10:27:56;93008.00;;;31.65;37.32
3250;BME280;1637;42.020;23.992;2022-07-29T10:30:24;93019.34;;;31.67;37.52
3250;BME280;1637;42.020;23.992;2022-07-29T10:33:04;93015.19;;;31.87;36.38
3250;BME280;1637;42.020;23.992;2022-07-29T10:35:43;93000.06;;;31.74;36.17
3250;BME280;1637;42.020;23.992;2022-07-29T10:38:26;93004.94;;;32.08;35.79
3250;BME280;1637;42.020;23.992;2022-07-29T10:41:02;93003.13;;;32.10;36.39
3250;BME280;1637;42.020;23.992;2022-07-29T10:43:52;93004.41;;;32.23;35.08
3250;BME280;1637;42.020;23.992;2022-07-29T10:46:20;93003.34;;;32.13;36.02
3250;BME280;1637;42.020;23.992;2022-07-29T10:49:07;92988.28;;;32.34;36.17
3250;BME280;1637;42.020;23.992;2022-07-29T10:51:59;92996.31;;;32.25;35.24
3250;BME280;1637;42.020;23.992;2022-07-29T10:54:46;92980.78;;;31.95;36.93
3250;BME280;1637;42.020;23.992;2022-07-29T10:57:24;92989.16;;;31.63;37.71
3250;BME280;1637;42.020;23.992;2022-07-29T11:02:59;92980.31;;;31.65;37.64
3250;BME280;1637;42.020;23.992;2022-07-29T11:05:26;92978.53;;;31.94;37.24
3250;BME280;1637;42.020;23.992;2022-07-29T11:08:17;92979.81;;;31.53;37.70
3250;BME280;1637;42.020;23.992;2022-07-29T11:10:45;92982.00;;;31.41;38.10
3250;BME280;1637;42.020;23.992;2022-07-29T11:13:12;92981.06;;;31.39;37.96
3250;BME280;1637;42.020;23.992;2022-07-29T11:15:53;92956.66;;;31.11;38.04
3250;BME280;1637;42.020;23.992;2022-07-29T11:18:21;92981.19;;;31.86;38.11
3250;BME280;1637;42.020;23.992;2022-07-29T11:20:51;92982.44;;;31.46;38.20
3250;BME280;1637;42.020;23.992;2022-07-29T11:23:20;92977.06;;;31.80;37.23
3250;BME280;1637;42.020;23.992;2022-07-29T11:26:17;92973.91;;;31.17;38.49
3250;BME280;1637;42.020;23.992;2022-07-29T11:29:08;92964.63;;;30.51;39.57
3250;BME280;1637;42.020;23.992;2022-07-29T11:31:44;92965.72;;;30.42;39.19
3250;BME280;1637;42.020;23.992;2022-07-29T11:34:23;92971.09;;;30.72;39.29
3250;BME280;1637;42.020;23.992;2022-07-29T11:37:16;92965.06;;;30.55;38.83
3250;BME280;1637;42.020;23.992;2022-07-29T11:39:45;92960.81;;;30.54;38.38
3250;BME280;1637;42.020;23.992;2022-07-29T11:42:37;92968.69;;;30.82;38.51
3250;BME280;1637;42.020;23.992;2022-07-29T11:45:07;92965.63;;;30.98;38.23
3250;BME280;1637;42.020;23.992;2022-07-29T11:47:37;92961.88;;;31.41;38.22
3250;BME280;1637;42.020;23.992;2022-07-29T11:50:10;92963.50;;;31.36;37.24
3250;BME280;1637;42.020;23.992;2022-07-29T11:52:38;92955.72;;;31.35;37.48
3250;BME280;1637;42.020;23.992;2022-07-29T11:55:11;92958.94;;;30.94;37.24
3250;BME280;1637;42.020;23.992;2022-07-29T11:57:45;92964.34;;;31.44;36.69
3250;BME280;1637;42.020;23.992;2022-07-29T12:00:21;92960.81;;;31.18;37.10
3250;BME280;1637;42.020;23.992;2022-07-29T12:02:49;92963.72;;;31.52;37.55
3250;BME280;1637;42.020;23.992;2022-07-29T12:05:18;92962.63;;;31.41;36.89
3250;BME280;1637;42.020;23.992;2022-07-29T12:07:46;92957.09;;;31.28;37.85
3250;BME280;1637;42.020;23.992;2022-07-29T12:10:14;92949.13;;;31.51;37.37
3250;BME280;1637;42.020;23.992;2022-07-29T12:12:41;92944.03;;;31.55;36.89
3250;BME280;1637;42.020;23.992;2022-07-29T12:15:13;92948.47;;;31.32;36.93
3250;BME280;1637;42.020;23.992;2022-07-29T12:17:40;92927.03;;;31.06;36.75
3250;BME280;1637;42.020;23.992;2022-07-29T12:20:07;92947.75;;;31.31;36.81
3250;BME280;1637;42.020;23.992;2022-07-29T12:22:37;92942.84;;;31.51;36.60
3250;BME280;1637;42.020;23.992;2022-07-29T12:25:07;92951.78;;;31.30;36.40
3250;BME280;1637;42.020;23.992;2022-07-29T12:27:35;92941.97;;;31.16;36.96
3250;BME280;1637;42.020;23.992;2022-07-29T12:30:05;92944.69;;;31.03;37.34
3250;BME280;1637;42.020;23.992;2022-07-29T12:32:33;92942.28;;;31.13;37.22
3250;BME280;1637;42.020;23.992;2022-07-29T12:35:03;92948.91;;;31.49;37.13
3250;BME280;1637;42.020;23.992;2022-07-29T12:37:32;92940.81;;;31.51;37.39
3250;BME280;1637;42.020;23.992;2022-07-29T12:40:01;92949.56;;;31.82;35.85
3250;BME280;1637;42.020;23.992;2022-07-29T12:42:28;92951.28;;;31.71;35.66
3250;BME280;1637;42.020;23.992;2022-07-29T12:44:55;92951.47;;;31.47;36.97
3250;BME280;1637;42.020;23.992;2022-07-29T12:47:22;92956.25;;;31.47;36.79
3250;BME280;1637;42.020;23.992;2022-07-29T12:49:50;92946.16;;;31.36;36.61
3250;BME280;1637;42.020;23.992;2022-07-29T12:52:27;92938.16;;;31.59;36.66
3250;BME280;1637;42.020;23.992;2022-07-29T12:54:55;92952.13;;;31.53;36.89
3250;BME280;1637;42.020;23.992;2022-07-29T12:57:25;92936.53;;;31.24;35.07
3250;BME280;1637;42.020;23.992;2022-07-29T13:00:06;92938.03;;;31.25;35.85
3250;BME280;1637;42.020;23.992;2022-07-29T13:02:36;92944.25;;;30.99;35.52
3250;BME280;1637;42.020;23.992;2022-07-29T13:05:05;92943.03;;;31.13;34.58
3250;BME280;1637;42.020;23.992;2022-07-29T13:07:34;92918.41;;;30.96;34.51
3250;BME280;1637;42.020;23.992;2022-07-29T13:10:13;92935.25;;;31.12;35.02
3250;BME280;1637;42.020;23.992;2022-07-29T13:13:01;92924.63;;;31.16;35.97
3250;BME280;1637;42.020;23.992;2022-07-29T13:15:28;92920.91;;;31.13;35.56
3250;BME280;1637;42.020;23.992;2022-07-29T13:17:55;92930.41;;;30.86;35.75
3250;BME280;1637;42.020;23.992;2022-07-29T13:20:24;92912.38;;;30.66;35.54
3250;BME280;1637;42.020;23.992;2022-07-29T13:22:53;92935.38;;;30.74;35.55